Time;durP1;ratioP1;P1;durP2;ratioP2;P2;SDS_P1;SDS_P2;PMS_P1;PMS_P2;Temp;Humidity;BMP_temperature;BMP_pressure;BME280_temperature;BME280_humidity;BME280_pressure;Samples;Min_cycle;Max_cycle;Signal;HPM_P1;HPM_P2
2022/11/29 00:00:09;;;;;;;0.93;0.65;;;;;;;;;;4132229;28;20108;-42
2022/11/29 00:02:13;;;;;;;1.27;0.63;;;;;;;;;;4131751;28;20109;-43
2022/11/29 00:04:15;;;;;;;0.70;0.70;;;;;;;;;;4131657;28;20046;-43
2022/11/29 00:06:19;;;;;;;0.90;0.75;;;;;;;;;;4131484;28;20062;-44
2022/11/29 00:08:21;;;;;;;1.05;0.77;;;;;;;;;;4132019;28;20387;-43
2022/11/29 00:10:22;;;;;;;0.80;0.75;;;;;;;;;;4125727;28;20525;-45
2022/11/29 00:12:24;;;;;;;0.63;0.63;;;;;;;;;;4132152;28;20054;-43
2022/11/29 00:14:26;;;;;;;0.90;0.77;;;;;;;;;;4132209;28;20074;-44
2022/11/29 00:16:27;;;;;;;0.80;0.60;;;;;;;;;;4131935;28;20171;-47
2022/11/29 00:18:28;;;;;;;0.60;0.60;;;;;;;;;;4131593;28;20058;-43
2022/11/29 00:20:29;;;;;;;1.25;0.90;;;;;;;;;;4131673;28;20057;-42
2022/11/29 00:22:31;;;;;;;0.90;0.75;;;;;;;;;;4124314;28;20102;-44
2022/11/29 00:24:32;;;;;;;1.02;0.93;;;;;;;;;;4131708;28;20062;-45
2022/11/29 00:26:35;;;;;;;0.80;0.60;;;;;;;;;;4131371;28;20113;-43
2022/11/29 00:28:37;;;;;;;1.08;0.77;;;;;;;;;;4114500;28;20541;-43
2022/11/29 00:30:39;;;;;;;0.95;0.70;;;;;;;;;;4131236;28;20637;-43
2022/11/29 00:32:40;;;;;;;0.68;0.63;;;;;;;;;;4131531;28;20414;-42
2022/11/29 00:34:42;;;;;;;0.80;0.63;;;;;;;;;;4114465;28;20062;-43
2022/11/29 00:36:43;;;;;;;0.77;0.77;;;;;;;;;;4131185;28;20054;-45
2022/11/29 00:38:44;;;;;;;0.70;0.70;;;;;;;;;;4131581;28;20050;-45
2022/11/29 00:40:50;;;;;;;1.02;0.82;;;;;;;;;;4114212;28;20058;-44
2022/11/29 00:42:51;;;;;;;0.73;0.70;;;;;;;;;;4098415;28;20051;-45
2022/11/29 00:44:53;;;;;;;1.30;1.02;;;;;;;;;;4131482;28;20054;-45
2022/11/29 00:46:54;;;;;;;0.77;0.70;;;;;;;;;;4131008;28;20077;-43
2022/11/29 00:48:56;;;;;;;0.85;0.80;;;;;;;;;;4131489;28;20065;-42
2022/11/29 00:50:58;;;;;;;0.80;0.80;;;;;;;;;;4113566;28;20173;-43
2022/11/29 00:52:59;;;;;;;0.73;0.70;;;;;;;;;;4113129;28;20090;-43
2022/11/29 00:55:00;;;;;;;0.73;0.63;;;;;;;;;;4131256;28;20058;-45
2022/11/29 00:57:01;;;;;;;0.85;0.70;;;;;;;;;;4130941;28;20054;-45
2022/11/29 00:59:03;;;;;;;0.73;0.60;;;;;;;;;;4131354;28;20054;-45
2022/11/29 01:01:04;;;;;;;0.75;0.60;;;;;;;;;;4130871;28;20093;-45
2022/11/29 01:03:06;;;;;;;0.68;0.63;;;;;;;;;;4130963;28;20050;-42
2022/11/29 01:05:07;;;;;;;0.60;0.60;;;;;;;;;;4123676;28;20101;-42
2022/11/29 01:07:08;;;;;;;0.80;0.73;;;;;;;;;;4130728;28;20061;-44
2022/11/29 01:09:09;;;;;;;0.82;0.80;;;;;;;;;;4131216;28;20089;-42
2022/11/29 01:11:14;;;;;;;1.00;0.90;;;;;;;;;;4138186;28;20057;-46
2022/11/29 01:13:15;;;;;;;1.40;1.15;;;;;;;;;;4146997;28;20050;-42
2022/11/29 01:15:16;;;;;;;1.05;0.95;;;;;;;;;;4147037;28;20504;-42
2022/11/29 01:17:18;;;;;;;0.88;0.85;;;;;;;;;;4147228;28;20382;-43
2022/11/29 01:19:19;;;;;;;0.70;0.70;;;;;;;;;;4147084;28;20402;-43
2022/11/29 01:21:23;;;;;;;1.30;0.60;;;;;;;;;;4146495;28;20417;-44
2022/11/29 01:23:24;;;;;;;0.98;0.88;;;;;;;;;;4143687;28;20046;-42
2022/11/29 01:25:25;;;;;;;1.00;0.90;;;;;;;;;;4137003;28;20058;-42
2022/11/29 01:27:26;;;;;;;0.90;0.70;;;;;;;;;;4137815;28;20061;-42
2022/11/29 01:29:27;;;;;;;0.98;0.88;;;;;;;;;;4142320;28;20107;-43
2022/11/29 01:31:35;;;;;;;0.80;0.60;;;;;;;;;;4146572;28;20050;-43
2022/11/29 01:33:37;;;;;;;0.88;0.65;;;;;;;;;;4129495;28;20577;-44
2022/11/29 01:35:38;;;;;;;0.82;0.82;;;;;;;;;;4146769;28;20053;-42
2022/11/29 01:37:40;;;;;;;0.77;0.60;;;;;;;;;;4134621;28;20136;-43
2022/11/29 01:39:41;;;;;;;1.35;0.65;;;;;;;;;;4132200;28;20077;-43
2022/11/29 01:41:42;;;;;;;0.60;0.60;;;;;;;;;;4141720;28;20054;-45
2022/11/29 01:43:58;;;;;;;1.08;0.98;;;;;;;;;;4121236;28;20097;-45
2022/11/29 01:45:59;;;;;;;0.75;0.63;;;;;;;;;;4145190;28;20124;-45
2022/11/29 01:48:00;;;;;;;0.80;0.63;;;;;;;;;;4131983;28;20062;-45
2022/11/29 01:50:02;;;;;;;0.70;0.70;;;;;;;;;;4145719;28;20053;-44
2022/11/29 01:52:07;;;;;;;0.77;0.60;;;;;;;;;;4128717;28;20058;-44
2022/11/29 01:54:09;;;;;;;1.20;0.85;;;;;;;;;;4133199;28;20146;-47
2022/11/29 01:56:12;;;;;;;0.82;0.70;;;;;;;;;;4145840;28;20417;-46
2022/11/29 01:58:14;;;;;;;1.00;0.90;;;;;;;;;;4146559;28;20520;-45
2022/11/29 02:00:16;;;;;;;0.63;0.60;;;;;;;;;;4146655;28;20057;-44
2022/11/29 02:02:28;;;;;;;1.10;1.00;;;;;;;;;;4129036;28;20058;-45
2022/11/29 02:04:33;;;;;;;1.00;0.60;;;;;;;;;;4135011;28;20097;-46
2022/11/29 02:06:36;;;;;;;0.80;0.70;;;;;;;;;;4135651;28;20058;-46
2022/11/29 02:08:39;;;;;;;0.77;0.70;;;;;;;;;;4125287;28;20062;-46
2022/11/29 02:10:55;;;;;;;0.80;0.80;;;;;;;;;;4143089;28;20088;-44
2022/11/29 02:13:09;;;;;;;0.82;0.75;;;;;;;;;;4129084;28;20054;-44
2022/11/29 02:15:17;;;;;;;0.80;0.70;;;;;;;;;;4140292;28;20058;-45
2022/11/29 02:17:47;;;;;;;1.30;0.75;;;;;;;;;;4160976;28;20057;-47
2022/11/29 02:20:05;;;;;;;0.98;0.70;;;;;;;;;;4138878;28;20058;-45
2022/11/29 02:22:18;;;;;;;0.93;0.70;;;;;;;;;;4142472;28;20053;-46
2022/11/29 02:24:37;;;;;;;1.58;0.80;;;;;;;;;;4142172;28;20050;-47
2022/11/29 02:26:56;;;;;;;1.00;0.80;;;;;;;;;;4139874;28;20050;-45
2022/11/29 02:29:30;;;;;;;0.80;0.70;;;;;;;;;;4128698;28;20238;-45
2022/11/29 02:32:09;;;;;;;0.88;0.80;;;;;;;;;;4128659;28;20116;-46
2022/11/29 02:34:13;;;;;;;0.60;0.50;;;;;;;;;;4141936;28;20054;-46
2022/11/29 02:36:36;;;;;;;0.90;0.75;;;;;;;;;;4137272;28;20054;-45
2022/11/29 02:39:09;;;;;;;1.00;0.90;;;;;;;;;;4146266;28;20088;-44
2022/11/29 02:41:30;;;;;;;0.82;0.60;;;;;;;;;;4132528;28;20061;-46
2022/11/29 02:43:53;;;;;;;0.70;0.57;;;;;;;;;;4129455;28;20070;-46
2022/11/29 02:46:09;;;;;;;1.00;0.90;;;;;;;;;;4149391;28;20058;-45
2022/11/29 02:48:38;;;;;;;0.90;0.70;;;;;;;;;;4153545;28;20100;-47
2022/11/29 02:51:04;;;;;;;1.35;0.98;;;;;;;;;;4133087;28;20494;-45
2022/11/29 02:53:14;;;;;;;0.70;0.70;;;;;;;;;;4153766;28;20065;-44
2022/11/29 02:55:29;;;;;;;0.98;0.70;;;;;;;;;;4131890;28;20058;-44
2022/11/29 02:57:39;;;;;;;0.75;0.75;;;;;;;;;;4164708;28;20080;-45
2022/11/29 03:00:07;;;;;;;1.27;0.70;;;;;;;;;;4152940;28;20112;-44
2022/11/29 03:02:33;;;;;;;0.85;0.80;;;;;;;;;;4152617;28;20389;-47
2022/11/29 03:04:56;;;;;;;0.68;0.68;;;;;;;;;;4149009;28;20421;-45
2022/11/29 03:07:05;;;;;;;1.00;0.90;;;;;;;;;;4135988;28;20049;-44
2022/11/29 03:09:27;;;;;;;0.70;0.70;;;;;;;;;;4124159;28;20083;-45
2022/11/29 03:11:39;;;;;;;0.57;0.50;;;;;;;;;;4145573;28;20108;-44
2022/11/29 03:14:03;;;;;;;1.20;0.82;;;;;;;;;;4132965;28;20355;-45
2022/11/29 03:16:22;;;;;;;1.13;0.70;;;;;;;;;;4144063;28;20054;-44
2022/11/29 03:18:40;;;;;;;;;;;;;;;;;;4120061;28;20502;-47
2022/11/29 03:20:54;;;;;;;0.68;0.60;;;;;;;;;;4163348;28;20376;-45
2022/11/29 03:23:04;;;;;;;1.10;0.80;;;;;;;;;;4135362;28;20065;-47
2022/11/29 03:25:26;;;;;;;0.73;0.70;;;;;;;;;;4149029;28;20050;-48
2022/11/29 03:27:53;;;;;;;0.70;0.63;;;;;;;;;;4153672;28;20058;-44
2022/11/29 03:29:57;;;;;;;0.60;0.60;;;;;;;;;;4110067;28;20065;-46
2022/11/29 03:32:09;;;;;;;0.77;0.65;;;;;;;;;;4139366;28;20050;-48
2022/11/29 03:34:37;;;;;;;0.88;0.80;;;;;;;;;;4137472;28;20065;-47
2022/11/29 03:36:43;;;;;;;1.00;0.90;;;;;;;;;;4137224;28;20054;-44
2022/11/29 03:38:46;;;;;;;0.88;0.60;;;;;;;;;;4131529;28;20054;-44
2022/11/29 03:40:55;;;;;;;2.03;0.60;;;;;;;;;;4148735;28;20085;-44
2022/11/29 03:43:09;;;;;;;0.73;0.73;;;;;;;;;;4147328;28;20469;-47
2022/11/29 03:45:20;;;;;;;0.70;0.60;;;;;;;;;;4122467;28;20580;-45
2022/11/29 03:47:27;;;;;;;0.93;0.80;;;;;;;;;;4131029;28;20414;-45
2022/11/29 03:49:47;;;;;;;0.70;0.70;;;;;;;;;;4128513;28;20054;-47
2022/11/29 03:51:57;;;;;;;1.10;0.80;;;;;;;;;;4146375;28;20080;-47
2022/11/29 03:54:03;;;;;;;0.93;0.60;;;;;;;;;;4150814;28;20060;-50
2022/11/29 03:56:21;;;;;;;0.80;0.70;;;;;;;;;;4163162;28;20053;-48
2022/11/29 03:58:38;;;;;;;0.80;0.60;;;;;;;;;;4148596;28;20096;-47
2022/11/29 04:00:46;;;;;;;0.77;0.65;;;;;;;;;;4130807;28;20066;-46
2022/11/29 04:03:04;;;;;;;0.57;0.57;;;;;;;;;;4118657;28;20105;-49
2022/11/29 04:05:36;;;;;;;0.77;0.70;;;;;;;;;;4137895;28;20058;-49
2022/11/29 04:07:46;;;;;;;0.70;0.57;;;;;;;;;;4149737;28;20053;-45
2022/11/29 04:10:26;;;;;;;0.73;0.70;;;;;;;;;;4130256;28;20109;-47
2022/11/29 04:12:37;;;;;;;0.88;0.68;;;;;;;;;;4147881;28;20104;-47
2022/11/29 04:15:08;;;;;;;0.82;0.55;;;;;;;;;;4140306;28;20085;-44
2022/11/29 04:17:34;;;;;;;0.77;0.77;;;;;;;;;;4145139;28;20058;-45
2022/11/29 04:19:56;;;;;;;0.63;0.57;;;;;;;;;;4131911;28;20125;-46
2022/11/29 04:22:06;;;;;;;0.88;0.77;;;;;;;;;;4147145;28;20479;-46
2022/11/29 04:24:26;;;;;;;0.88;0.77;;;;;;;;;;4135438;28;20390;-44
2022/11/29 04:26:43;;;;;;;1.05;0.65;;;;;;;;;;4147888;28;20058;-45
2022/11/29 04:29:11;;;;;;;1.38;0.70;;;;;;;;;;4147708;28;20068;-45
2022/11/29 04:31:31;;;;;;;1.02;0.73;;;;;;;;;;4130738;28;20050;-45
2022/11/29 04:33:46;;;;;;;0.68;0.52;;;;;;;;;;4147471;28;20050;-44
2022/11/29 04:36:00;;;;;;;0.63;0.63;;;;;;;;;;4124861;28;20054;-45
2022/11/29 04:38:41;;;;;;;0.80;0.70;;;;;;;;;;4124191;28;20399;-45
2022/11/29 04:41:00;;;;;;;0.88;0.65;;;;;;;;;;4135258;28;20112;-47
2022/11/29 04:43:16;;;;;;;0.63;0.57;;;;;;;;;;4130385;28;20050;-46
2022/11/29 04:45:42;;;;;;;0.80;0.60;;;;;;;;;;4146671;28;20578;-47
2022/11/29 04:48:06;;;;;;;0.85;0.70;;;;;;;;;;4139455;28;20050;-45
2022/11/29 04:50:45;;;;;;;0.75;0.60;;;;;;;;;;4132830;28;20192;-46
2022/11/29 04:53:30;;;;;;;0.95;0.70;;;;;;;;;;4140364;28;20120;-44
2022/11/29 04:55:41;;;;;;;0.82;0.68;;;;;;;;;;4118583;28;20054;-45
2022/11/29 04:57:45;;;;;;;0.77;0.70;;;;;;;;;;4152694;28;20056;-45
2022/11/29 05:00:08;;;;;;;0.90;0.77;;;;;;;;;;4146353;28;20100;-44
2022/11/29 05:02:28;;;;;;;0.75;0.57;;;;;;;;;;4113837;28;20093;-45
2022/11/29 05:04:49;;;;;;;0.63;0.63;;;;;;;;;;4130450;28;20050;-45
2022/11/29 05:07:01;;;;;;;0.80;0.70;;;;;;;;;;4134438;28;20563;-45
2022/11/29 05:09:15;;;;;;;0.60;0.60;;;;;;;;;;4139066;28;20622;-45
2022/11/29 05:11:31;;;;;;;0.77;0.68;;;;;;;;;;4126763;28;20106;-45
2022/11/29 05:13:53;;;;;;;0.93;0.80;;;;;;;;;;4125363;28;20086;-45
2022/11/29 05:16:15;;;;;;;0.82;0.68;;;;;;;;;;4156728;28;20528;-44
2022/11/29 05:18:35;;;;;;;0.70;0.63;;;;;;;;;;4134428;28;20053;-45
2022/11/29 05:21:06;;;;;;;0.70;0.60;;;;;;;;;;4129831;28;20058;-45
2022/11/29 05:23:25;;;;;;;0.60;0.60;;;;;;;;;;4110554;28;20510;-45
2022/11/29 05:25:38;;;;;;;0.85;0.70;;;;;;;;;;4139220;28;20421;-46
2022/11/29 05:27:58;;;;;;;0.70;0.60;;;;;;;;;;4134139;28;20054;-45
2022/11/29 05:30:21;;;;;;;0.70;0.60;;;;;;;;;;4136038;28;20327;-46
2022/11/29 05:32:29;;;;;;;0.52;0.52;;;;;;;;;;4150798;28;20081;-46
2022/11/29 05:34:49;;;;;;;0.50;0.47;;;;;;;;;;4126636;28;20050;-47
2022/11/29 05:37:00;;;;;;;0.50;0.40;;;;;;;;;;4130620;28;20109;-45
2022/11/29 05:39:39;;;;;;;;;;;;;;;;;;4127153;28;20057;-45
2022/11/29 05:41:55;;;;;;;0.82;0.60;;;;;;;;;;4119271;28;19964;-45
2022/11/29 05:44:13;;;;;;;1.10;0.80;;;;;;;;;;4112520;28;20392;-44
2022/11/29 05:46:48;;;;;;;0.70;0.63;;;;;;;;;;4103570;28;20046;-46
2022/11/29 05:49:11;;;;;;;0.90;0.80;;;;;;;;;;4133931;28;20053;-44
2022/11/29 05:51:21;;;;;;;0.98;0.73;;;;;;;;;;4130033;28;20086;-45
2022/11/29 05:53:47;;;;;;;0.95;0.70;;;;;;;;;;4139352;28;20050;-46
2022/11/29 05:56:13;;;;;;;0.68;0.68;;;;;;;;;;4132895;28;20054;-44
2022/11/29 05:58:26;;;;;;;1.25;0.90;;;;;;;;;;4145554;28;20058;-47
2022/11/29 06:00:34;;;;;;;1.13;0.60;;;;;;;;;;4118650;28;20063;-44
2022/11/29 06:02:50;;;;;;;0.77;0.77;;;;;;;;;;4146092;28;20127;-44
2022/11/29 06:05:23;;;;;;;1.10;0.90;;;;;;;;;;4142914;28;20050;-44
2022/11/29 06:07:39;;;;;;;0.85;0.85;;;;;;;;;;4143569;28;20105;-44
2022/11/29 06:10:04;;;;;;;2.10;0.80;;;;;;;;;;4127002;28;20549;-44
2022/11/29 06:12:14;;;;;;;0.60;0.60;;;;;;;;;;4136132;28;20085;-44
2022/11/29 06:14:33;;;;;;;0.73;0.60;;;;;;;;;;4126680;28;20519;-44
2022/11/29 06:16:56;;;;;;;0.60;0.60;;;;;;;;;;4143719;28;20057;-44
2022/11/29 06:18:57;;;;;;;0.82;0.80;;;;;;;;;;4123746;28;20083;-49
2022/11/29 06:21:27;;;;;;;0.82;0.80;;;;;;;;;;4139320;28;20062;-44
2022/11/29 06:23:48;;;;;;;1.25;1.15;;;;;;;;;;4138739;28;20498;-47
2022/11/29 06:26:23;;;;;;;1.35;1.10;;;;;;;;;;4147869;28;20571;-45
2022/11/29 06:28:43;;;;;;;0.80;0.80;;;;;;;;;;4140487;28;20076;-47
2022/11/29 06:31:00;;;;;;;2.38;1.08;;;;;;;;;;4140734;28;20080;-45
2022/11/29 06:33:08;;;;;;;1.33;0.85;;;;;;;;;;4153440;28;20060;-45
2022/11/29 06:35:40;;;;;;;1.30;0.90;;;;;;;;;;4138600;28;20049;-48
2022/11/29 06:37:45;;;;;;;0.80;0.80;;;;;;;;;;4142787;28;20050;-44
2022/11/29 06:39:47;;;;;;;0.77;0.77;;;;;;;;;;4134083;28;20057;-45
2022/11/29 06:41:48;;;;;;;0.95;0.93;;;;;;;;;;4142128;28;20442;-47
2022/11/29 06:43:50;;;;;;;0.93;0.80;;;;;;;;;;4113778;28;20052;-46
2022/11/29 06:46:14;;;;;;;0.70;0.70;;;;;;;;;;4139241;28;20058;-45
2022/11/29 06:48:22;;;;;;;1.00;0.90;;;;;;;;;;4122658;28;20373;-45
2022/11/29 06:50:52;;;;;;;1.48;1.17;;;;;;;;;;4142930;28;20193;-48
2022/11/29 06:53:14;;;;;;;1.10;1.00;;;;;;;;;;4130196;28;20133;-45
2022/11/29 06:55:38;;;;;;;0.80;0.80;;;;;;;;;;4122841;28;20201;-44
2022/11/29 06:57:53;;;;;;;1.10;0.90;;;;;;;;;;4125642;28;20058;-43
2022/11/29 07:00:50;;;;;;;1.20;0.90;;;;;;;;;;4136287;28;20057;-44
2022/11/29 07:02:51;;;;;;;1.30;1.08;;;;;;;;;;4109572;28;20569;-44
2022/11/29 07:05:13;;;;;;;0.82;0.75;;;;;;;;;;4120717;28;20058;-46
2022/11/29 07:07:18;;;;;;;1.13;0.93;;;;;;;;;;4134917;28;20433;-44
2022/11/29 07:09:23;;;;;;;1.38;0.85;;;;;;;;;;4135192;28;20050;-46
2022/11/29 07:11:25;;;;;;;1.02;0.90;;;;;;;;;;4106906;28;20426;-46
2022/11/29 07:13:27;;;;;;;1.00;0.85;;;;;;;;;;4126194;28;20055;-45
2022/11/29 07:15:28;;;;;;;0.95;0.75;;;;;;;;;;4114317;28;20062;-45
2022/11/29 07:17:35;;;;;;;2.10;1.13;;;;;;;;;;4118922;28;20125;-43
2022/11/29 07:20:15;;;;;;;0.73;0.70;;;;;;;;;;4130338;28;20054;-43
2022/11/29 07:22:31;;;;;;;;;;;;;;;;;;4110069;28;20105;-46
2022/11/29 07:25:10;;;;;;;1.27;0.90;;;;;;;;;;4127759;28;20033;-45
2022/11/29 07:27:19;;;;;;;1.05;0.90;;;;;;;;;;4109413;28;20077;-47
2022/11/29 07:29:26;;;;;;;1.20;1.10;;;;;;;;;;4098520;28;20481;-49
2022/11/29 07:31:38;;;;;;;0.82;0.80;;;;;;;;;;4117222;28;20180;-48
2022/11/29 07:34:01;;;;;;;3.63;1.23;;;;;;;;;;4109657;28;20137;-46
2022/11/29 07:36:11;;;;;;;2.35;0.90;;;;;;;;;;4108999;28;20062;-47
2022/11/29 07:38:31;;;;;;;1.10;1.00;;;;;;;;;;4102156;28;20521;-49
2022/11/29 07:40:38;;;;;;;1.88;0.90;;;;;;;;;;4104239;28;20146;-47
2022/11/29 07:42:52;;;;;;;2.03;0.90;;;;;;;;;;4110290;28;20062;-48
2022/11/29 07:45:04;;;;;;;2.35;1.00;;;;;;;;;;4099074;28;20066;-48
2022/11/29 07:47:07;;;;;;;0.98;0.65;;;;;;;;;;4102404;28;20089;-45
2022/11/29 07:49:10;;;;;;;1.90;0.90;;;;;;;;;;4097616;28;20094;-47
2022/11/29 07:51:12;;;;;;;1.17;0.88;;;;;;;;;;4102812;28;20065;-46
2022/11/29 07:53:18;;;;;;;1.52;1.00;;;;;;;;;;4119085;28;20050;-42
2022/11/29 07:55:22;;;;;;;0.95;0.82;;;;;;;;;;4094956;28;20446;-42
2022/11/29 07:57:23;;;;;;;0.82;0.75;;;;;;;;;;4101954;28;20815;-45
2022/11/29 07:59:24;;;;;;;5.35;0.90;;;;;;;;;;4097497;28;20105;-43
2022/11/29 08:01:25;;;;;;;4.50;0.80;;;;;;;;;;4095697;28;20169;-43
2022/11/29 08:03:26;;;;;;;1.08;0.88;;;;;;;;;;4091763;28;20794;-41
2022/11/29 08:05:27;;;;;;;2.38;0.75;;;;;;;;;;4083914;28;20515;-43
2022/11/29 08:07:29;;;;;;;0.90;0.70;;;;;;;;;;4098820;28;20097;-48
2022/11/29 08:09:30;;;;;;;1.63;0.95;;;;;;;;;;4105722;28;20121;-47
2022/11/29 08:11:31;;;;;;;2.45;0.77;;;;;;;;;;4118428;28;20670;-42
2022/11/29 08:13:32;;;;;;;1.00;0.90;;;;;;;;;;4110296;28;20112;-42
2022/11/29 08:15:34;;;;;;;0.75;0.75;;;;;;;;;;4103853;28;20059;-45
2022/11/29 08:17:36;;;;;;;2.92;1.10;;;;;;;;;;4101589;28;20497;-45
2022/11/29 08:19:37;;;;;;;3.30;1.00;;;;;;;;;;4120463;28;20164;-44
2022/11/29 08:21:42;;;;;;;2.30;0.80;;;;;;;;;;4111444;28;20065;-43
2022/11/29 08:23:44;;;;;;;1.10;0.80;;;;;;;;;;4113954;28;22469;-44
2022/11/29 08:25:47;;;;;;;1.42;0.93;;;;;;;;;;4118997;28;20141;-42
2022/11/29 08:27:48;;;;;;;2.55;1.20;;;;;;;;;;4103221;28;20481;-43
2022/11/29 08:29:49;;;;;;;2.42;0.88;;;;;;;;;;4106221;28;20117;-43
2022/11/29 08:31:52;;;;;;;3.65;1.00;;;;;;;;;;4101736;28;23260;-45
2022/11/29 08:33:53;;;;;;;1.90;1.00;;;;;;;;;;4114367;28;20057;-46
2022/11/29 08:35:55;;;;;;;1.50;1.05;;;;;;;;;;4107705;28;20158;-47
2022/11/29 08:37:56;;;;;;;1.90;0.80;;;;;;;;;;4112858;28;20528;-42
2022/11/29 08:39:58;;;;;;;1.45;0.77;;;;;;;;;;4119300;28;20062;-45
2022/11/29 08:41:59;;;;;;;1.00;0.90;;;;;;;;;;4113437;28;20965;-45
2022/11/29 08:44:01;;;;;;;2.25;0.93;;;;;;;;;;4114214;28;20061;-41
2022/11/29 08:46:02;;;;;;;1.30;0.80;;;;;;;;;;4108155;28;20140;-42
2022/11/29 08:48:04;;;;;;;1.85;0.98;;;;;;;;;;4109398;28;20114;-42
2022/11/29 08:50:07;;;;;;;4.32;1.15;;;;;;;;;;4108455;28;20576;-44
2022/11/29 08:54:28;;;;;;;1.13;0.80;;;;;;;;;;4101572;28;21744;-40
2022/11/29 08:56:29;;;;;;;2.45;0.80;;;;;;;;;;4082817;28;20054;-45
2022/11/29 08:58:31;;;;;;;6.95;1.65;;;;;;;;;;4114093;28;21006;-46
2022/11/29 09:00:33;;;;;;;1.60;0.90;;;;;;;;;;4097211;28;20053;-42
2022/11/29 09:02:35;;;;;;;1.20;0.82;;;;;;;;;;4098540;28;20058;-43
2022/11/29 09:04:37;;;;;;;1.15;0.90;;;;;;;;;;4097576;28;20058;-45
2022/11/29 09:06:40;;;;;;;1.83;1.00;;;;;;;;;;4103057;28;20144;-45
2022/11/29 09:08:42;;;;;;;2.00;0.90;;;;;;;;;;4111121;28;20058;-44
2022/11/29 09:10:44;;;;;;;1.83;0.98;;;;;;;;;;4106161;28;20113;-46
2022/11/29 09:12:45;;;;;;;1.55;1.00;;;;;;;;;;4106540;28;20097;-47
2022/11/29 09:14:47;;;;;;;3.00;0.98;;;;;;;;;;4100884;28;20349;-41
2022/11/29 09:16:48;;;;;;;3.15;1.05;;;;;;;;;;4103313;28;20104;-42
2022/11/29 09:18:51;;;;;;;2.55;0.98;;;;;;;;;;4104941;28;20054;-44
2022/11/29 09:20:53;;;;;;;1.40;0.98;;;;;;;;;;4122933;28;20069;-45
2022/11/29 09:22:54;;;;;;;2.08;1.17;;;;;;;;;;4101596;28;20064;-45
2022/11/29 09:24:56;;;;;;;4.18;0.95;;;;;;;;;;4081791;28;20054;-43
2022/11/29 09:26:57;;;;;;;1.83;1.00;;;;;;;;;;4104026;28;20095;-41
2022/11/29 09:29:00;;;;;;;1.35;0.90;;;;;;;;;;4102516;28;20061;-40
2022/11/29 09:31:06;;;;;;;1.65;1.02;;;;;;;;;;4104467;28;20069;-46
2022/11/29 09:33:07;;;;;;;2.67;0.90;;;;;;;;;;4098649;28;20058;-47
2022/11/29 09:35:08;;;;;;;1.00;0.90;;;;;;;;;;4105147;28;20057;-42
2022/11/29 09:37:09;;;;;;;0.85;0.70;;;;;;;;;;4094720;28;20652;-44
2022/11/29 09:39:11;;;;;;;5.90;1.02;;;;;;;;;;4104025;28;20691;-42
2022/11/29 09:41:50;;;;;;;1.42;0.90;;;;;;;;;;4101970;28;20112;-46
2022/11/29 09:43:59;;;;;;;2.15;0.90;;;;;;;;;;4098134;28;21056;-44
2022/11/29 09:46:29;;;;;;;2.35;0.80;;;;;;;;;;4103118;28;20131;-44
2022/11/29 09:48:39;;;;;;;0.90;0.70;;;;;;;;;;4079392;28;20061;-46
2022/11/29 09:50:47;;;;;;;4.30;0.82;;;;;;;;;;4102227;28;20136;-43
2022/11/29 09:53:16;;;;;;;1.48;1.00;;;;;;;;;;4079633;28;20750;-40
2022/11/29 09:55:23;;;;;;;0.80;0.80;;;;;;;;;;4096249;28;20553;-42
2022/11/29 09:57:27;;;;;;;1.98;0.75;;;;;;;;;;4089127;28;20127;-42
2022/11/29 09:59:36;;;;;;;4.47;1.15;;;;;;;;;;4079777;28;20160;-42
2022/11/29 10:01:41;;;;;;;3.23;0.90;;;;;;;;;;4083484;28;20058;-40
2022/11/29 10:03:45;;;;;;;2.10;0.70;;;;;;;;;;4058441;28;20136;-43
2022/11/29 10:05:50;;;;;;;1.98;1.00;;;;;;;;;;4076212;28;20058;-41
2022/11/29 10:08:01;;;;;;;4.88;0.80;;;;;;;;;;4085042;28;20054;-40
2022/11/29 10:10:12;;;;;;;1.88;0.70;;;;;;;;;;4091262;28;23114;-39
2022/11/29 10:12:22;;;;;;;1.23;0.82;;;;;;;;;;4072669;28;20256;-41
2022/11/29 10:14:30;;;;;;;0.93;0.75;;;;;;;;;;4086989;28;20580;-45
2022/11/29 10:16:55;;;;;;;2.15;0.70;;;;;;;;;;4097320;28;20058;-45
2022/11/29 10:19:27;;;;;;;2.38;0.90;;;;;;;;;;4084102;28;20926;-43
2022/11/29 10:21:31;;;;;;;2.17;0.77;;;;;;;;;;4080888;28;20094;-41
2022/11/29 10:23:36;;;;;;;1.85;0.90;;;;;;;;;;4128184;28;20231;-41
2022/11/29 10:25:50;;;;;;;0.80;0.65;;;;;;;;;;4122675;28;20135;-42
2022/11/29 10:27:52;;;;;;;2.88;0.70;;;;;;;;;;4095374;28;20123;-44
2022/11/29 10:29:53;;;;;;;2.38;0.70;;;;;;;;;;4090207;28;20062;-51
2022/11/29 10:31:56;;;;;;;0.88;0.77;;;;;;;;;;4086441;28;20131;-41
2022/11/29 10:34:00;;;;;;;4.78;0.70;;;;;;;;;;4080107;28;20050;-43
2022/11/29 10:36:06;;;;;;;1.25;0.80;;;;;;;;;;4078480;28;20054;-47
2022/11/29 10:38:10;;;;;;;3.00;1.08;;;;;;;;;;4060629;28;20835;-44
2022/11/29 10:40:16;;;;;;;2.17;0.70;;;;;;;;;;4102002;28;20619;-48
2022/11/29 10:44:43;;;;;;;1.38;0.75;;;;;;;;;;4094170;28;20115;-49
2022/11/29 10:46:45;;;;;;;2.85;0.82;;;;;;;;;;4106125;28;20062;-45
2022/11/29 10:48:46;;;;;;;1.23;0.70;;;;;;;;;;4111906;28;20065;-39
2022/11/29 10:50:50;;;;;;;1.92;0.77;;;;;;;;;;4102020;28;20064;-44
2022/11/29 10:52:55;;;;;;;0.90;0.68;;;;;;;;;;4110335;28;20522;-41
2022/11/29 10:54:57;;;;;;;2.35;0.90;;;;;;;;;;4123176;28;20053;-46
2022/11/29 10:57:00;;;;;;;4.30;0.60;;;;;;;;;;4100692;28;20145;-42
2022/11/29 10:59:06;;;;;;;2.42;1.08;;;;;;;;;;4113682;28;20133;-42
2022/11/29 11:01:12;;;;;;;2.05;0.50;;;;;;;;;;4087368;28;20058;-44
2022/11/29 11:03:35;;;;;;;2.83;0.88;;;;;;;;;;4081248;28;20717;-43
2022/11/29 11:05:36;;;;;;;0.93;0.60;;;;;;;;;;4111345;28;20557;-45
2022/11/29 11:07:38;;;;;;;1.00;0.70;;;;;;;;;;4127664;28;20668;-44
2022/11/29 11:09:45;;;;;;;0.82;0.75;;;;;;;;;;4116021;28;20341;-48
2022/11/29 11:11:52;;;;;;;3.25;0.90;;;;;;;;;;4117642;28;20144;-41
2022/11/29 11:14:02;;;;;;;0.98;0.90;;;;;;;;;;4111380;28;20050;-46
2022/11/29 11:16:15;;;;;;;1.08;0.80;;;;;;;;;;4119731;28;20063;-47
2022/11/29 11:18:20;;;;;;;1.17;0.70;;;;;;;;;;4125453;28;20053;-47
2022/11/29 11:20:22;;;;;;;2.70;0.80;;;;;;;;;;4115702;28;20096;-40
2022/11/29 11:22:24;;;;;;;1.30;0.50;;;;;;;;;;4111275;28;20061;-46
2022/11/29 11:24:29;;;;;;;0.75;0.73;;;;;;;;;;4113079;28;20417;-42
2022/11/29 11:26:43;;;;;;;0.95;0.68;;;;;;;;;;4121188;28;20426;-46
2022/11/29 11:28:59;;;;;;;1.73;0.65;;;;;;;;;;4113201;28;20057;-41
2022/11/29 11:31:04;;;;;;;1.08;0.70;;;;;;;;;;4099162;28;20060;-46
2022/11/29 11:33:20;;;;;;;0.82;0.60;;;;;;;;;;4092845;28;20202;-41
2022/11/29 11:35:22;;;;;;;1.35;0.80;;;;;;;;;;4113949;28;21566;-44
2022/11/29 11:37:25;;;;;;;1.27;0.73;;;;;;;;;;4121827;28;20139;-47
2022/11/29 11:39:27;;;;;;;2.40;0.60;;;;;;;;;;4109215;28;20058;-43
2022/11/29 11:43:55;;;;;;;0.57;0.57;;;;;;;;;;4122159;28;20120;-45
2022/11/29 11:45:56;;;;;;;0.85;0.75;;;;;;;;;;4112569;28;20220;-44
2022/11/29 11:48:01;;;;;;;2.40;0.63;;;;;;;;;;4107777;28;20058;-49
2022/11/29 11:50:09;;;;;;;0.90;0.70;;;;;;;;;;4121220;28;20101;-44
2022/11/29 11:52:19;;;;;;;1.83;0.73;;;;;;;;;;4074350;28;20108;-44
2022/11/29 11:54:21;;;;;;;0.98;0.68;;;;;;;;;;4104872;28;20525;-43
2022/11/29 11:56:24;;;;;;;2.47;0.60;;;;;;;;;;4111737;28;20105;-46
2022/11/29 11:58:31;;;;;;;3.70;0.70;;;;;;;;;;4098303;28;20059;-42
2022/11/29 12:01:00;;;;;;;0.80;0.50;;;;;;;;;;4120671;28;20053;-39
2022/11/29 12:03:01;;;;;;;6.05;0.70;;;;;;;;;;4075268;28;20391;-39
2022/11/29 12:05:14;;;;;;;3.03;1.05;;;;;;;;;;4095363;28;20058;-43
2022/11/29 12:07:31;;;;;;;1.55;0.80;;;;;;;;;;4070614;28;20136;-43
2022/11/29 12:09:43;;;;;;;3.15;0.57;;;;;;;;;;4103933;28;20054;-43
2022/11/29 12:11:47;;;;;;;0.77;0.60;;;;;;;;;;4073147;28;20054;-43
2022/11/29 12:13:56;;;;;;;2.70;0.60;;;;;;;;;;4084836;28;20050;-43
2022/11/29 12:16:02;;;;;;;4.70;0.60;;;;;;;;;;4057076;28;20103;-40
2022/11/29 12:18:11;;;;;;;3.17;0.60;;;;;;;;;;4080314;28;20511;-42
2022/11/29 12:20:33;;;;;;;1.85;0.77;;;;;;;;;;4055079;28;20846;-45
2022/11/29 12:22:53;;;;;;;3.65;0.63;;;;;;;;;;4093053;28;20107;-44
2022/11/29 12:24:56;;;;;;;;;;;;;;;;;;4076721;28;20152;-41
2022/11/29 12:27:02;;;;;;;0.85;0.70;;;;;;;;;;4084159;28;20316;-40
2022/11/29 12:29:11;;;;;;;0.95;0.70;;;;;;;;;;4071897;28;20169;-40
2022/11/29 12:31:35;;;;;;;2.45;0.60;;;;;;;;;;4074171;28;20164;-41
2022/11/29 12:33:40;;;;;;;1.67;0.50;;;;;;;;;;4090618;28;20049;-40
2022/11/29 12:36:02;;;;;;;1.48;0.77;;;;;;;;;;4085811;28;20105;-41
2022/11/29 12:38:38;;;;;;;0.60;0.60;;;;;;;;;;4069416;28;20165;-41
2022/11/29 12:41:17;;;;;;;1.00;0.60;;;;;;;;;;4083757;28;20062;-40
2022/11/29 12:43:27;;;;;;;2.92;0.70;;;;;;;;;;4086216;28;20053;-40
2022/11/29 12:45:33;;;;;;;;;;;;;;;;;;4076617;28;20061;-41
2022/11/29 12:47:42;;;;;;;2.22;0.60;;;;;;;;;;4075892;28;20967;-46
2022/11/29 12:49:53;;;;;;;1.67;0.70;;;;;;;;;;4080224;28;20090;-46
2022/11/29 12:52:10;;;;;;;4.13;0.57;;;;;;;;;;4056912;28;20059;-46
2022/11/29 12:54:24;;;;;;;0.73;0.57;;;;;;;;;;4075491;28;20532;-41
2022/11/29 12:56:52;;;;;;;0.82;0.60;;;;;;;;;;4087308;28;21245;-41
2022/11/29 12:59:41;;;;;;;2.60;0.60;;;;;;;;;;4056234;28;20065;-38
2022/11/29 13:02:07;;;;;;;4.65;0.90;;;;;;;;;;4033114;28;20066;-39
2022/11/29 13:04:35;;;;;;;1.13;0.70;;;;;;;;;;4067120;28;20108;-39
2022/11/29 13:06:42;;;;;;;2.90;0.73;;;;;;;;;;4080759;28;20100;-41
2022/11/29 13:08:52;;;;;;;0.63;0.47;;;;;;;;;;4057357;28;20059;-39
2022/11/29 13:11:06;;;;;;;2.75;0.50;;;;;;;;;;4100655;28;21712;-43
2022/11/29 13:13:19;;;;;;;2.15;0.63;;;;;;;;;;4092779;28;20778;-40